Time;durP1;ratioP1;P1;durP2;ratioP2;P2;SDS_P1;SDS_P2;PMS_P1;PMS_P2;Temp;Humidity;BMP_temperature;BMP_pressure;BME280_temperature;BME280_humidity;BME280_pressure;Samples;Min_cycle;Max_cycle;Signal;HPM_P1;HPM_P2
2021/06/23 00:00:42;;;;;;;;;;;;;;;29.17;44.23;100329.83;1837857;78;20215;-78
2021/06/23 00:03:08;;;;;;;;;;;;;;;29.17;44.08;100323.77;1837364;77;20152;-78
2021/06/23 00:05:34;;;;;;;;;;;;;;;29.18;43.87;100329.54;1837976;78;20176;-77
2021/06/23 00:08:00;;;;;;;;;;;;;;;29.19;43.65;100331.18;1836991;78;20169;-78
2021/06/23 00:10:26;;;;;;;;;;;;;;;29.22;43.55;100325.66;1837676;78;20184;-78
2021/06/23 00:12:54;;;;;;;;;;;;;;;29.23;43.54;100329.50;1837487;78;20168;-77
2021/06/23 00:15:20;;;;;;;;;;;;;;;29.23;43.58;100335.02;1837537;78;20168;-78
2021/06/23 00:17:46;;;;;;;;;;;;;;;29.23;43.38;100327.30;1837209;78;20148;-77
2021/06/23 00:20:13;;;;;;;;;;;;;;;29.21;43.40;100333.12;1838474;78;20160;-77
2021/06/23 00:22:39;;;;;;;;;;;;;;;29.18;43.41;100323.20;1838181;78;20180;-78
2021/06/23 00:25:05;;;;;;;;;;;;;;;29.17;43.25;100326.52;1839004;78;20180;-78
2021/06/23 00:27:31;;;;;;;;;;;;;;;29.18;43.28;100328.72;1838628;78;20137;-78
2021/06/23 00:29:57;;;;;;;;;;;;;;;29.15;43.38;100317.69;1839540;78;20126;-78
2021/06/23 00:32:23;;;;;;;;;;;;;;;29.17;43.53;100324.31;1839536;78;20199;-78
2021/06/23 00:34:50;;;;;;;;;;;;;;;29.15;43.63;100325.14;1839358;78;20137;-78
2021/06/23 00:37:16;;;;;;;;;;;;;;;29.13;43.71;100329.57;1839457;78;20160;-77
2021/06/23 00:39:42;;;;;;;;;;;;;;;29.10;43.67;100319.66;1839725;78;20168;-78
2021/06/23 00:42:09;;;;;;;;;;;;;;;29.10;43.67;100325.99;1813737;78;20135;-78
2021/06/23 00:44:38;;;;;;;;;;;;;;;29.09;43.60;100327.67;1839647;78;20128;-77
2021/06/23 00:47:04;;;;;;;;;;;;;;;29.08;43.45;100326.03;1839206;78;20137;-77
2021/06/23 00:49:32;;;;;;;;;;;;;;;29.05;43.18;100324.65;1839909;78;20126;-78
2021/06/23 00:52:16;;;;;;;;;;;;;;;29.03;42.88;100315.84;1835226;78;20157;-77
2021/06/23 00:54:48;;;;;;;;;;;;;;;29.02;42.40;100314.17;1839198;78;20133;-78
2021/06/23 00:57:15;;;;;;;;;;;;;;;29.04;42.19;100317.49;1839370;78;20125;-77
2021/06/23 00:59:43;;;;;;;;;;;;;;;29.03;41.99;100311.16;1839222;78;20173;-78
2021/06/23 01:02:09;;;;;;;;;;;;;;;29.04;41.92;100314.73;1839728;78;20118;-78
2021/06/23 01:04:34;;;;;;;;;;;;;;;29.02;41.99;100312.27;1839518;78;20148;-78
2021/06/23 01:07:01;;;;;;;;;;;;;;;29.03;42.19;100310.33;1839706;78;20141;-78
2021/06/23 01:09:28;;;;;;;;;;;;;;;29.03;42.47;100311.71;1839284;78;20165;-78
2021/06/23 01:12:10;;;;;;;;;;;;;;;29.03;42.72;100311.16;1814337;78;20214;-77
2021/06/23 01:14:36;;;;;;;;;;;;;;;29.01;42.80;100313.36;1839297;78;20346;-78
2021/06/23 01:17:03;;;;;;;;;;;;;;;29.01;42.72;100309.77;1839327;78;20172;-78
2021/06/23 01:19:33;;;;;;;;;;;;;;;29.00;42.57;100323.30;1839601;78;20419;-78
2021/06/23 01:22:00;;;;;;;;;;;;;;;28.99;42.28;100343.72;1838927;78;20141;-78
2021/06/23 01:24:28;;;;;;;;;;;;;;;29.00;42.29;100332.95;1787909;78;20157;-78
2021/06/23 01:26:54;;;;;;;;;;;;;;;28.97;42.48;100318.34;1839497;78;20137;-78
2021/06/23 01:29:20;;;;;;;;;;;;;;;28.96;42.54;100316.70;1839178;78;20136;-78
2021/06/23 01:31:54;;;;;;;;;;;;;;;28.95;42.64;100320.02;1838359;78;20446;-78
2021/06/23 01:34:20;;;;;;;;;;;;;;;28.92;42.65;100319.16;1839293;78;20132;-77
2021/06/23 01:36:47;;;;;;;;;;;;;;;28.92;42.54;100323.86;1839638;78;20140;-78
2021/06/23 01:39:13;;;;;;;;;;;;;;;28.89;42.56;100314.23;1839305;78;20442;-78
2021/06/23 01:41:41;;;;;;;;;;;;;;;28.87;42.58;100308.16;1838608;78;20434;-77
2021/06/23 01:44:08;;;;;;;;;;;;;;;28.86;42.65;100313.97;1839487;78;20145;-77
2021/06/23 01:46:34;;;;;;;;;;;;;;;28.86;42.68;100326.38;1839068;78;20129;-77
2021/06/23 01:48:59;;;;;;;;;;;;;;;28.84;42.71;100330.78;1839472;78;20203;-77
2021/06/23 01:51:26;;;;;;;;;;;;;;;28.83;42.77;100321.69;1839148;78;20134;-77
2021/06/23 01:53:53;;;;;;;;;;;;;;;28.82;42.82;100317.84;1839550;78;20133;-77
2021/06/23 01:56:19;;;;;;;;;;;;;;;28.82;42.95;100329.69;1839371;78;20773;-78
2021/06/23 01:58:46;;;;;;;;;;;;;;;28.80;43.07;100329.16;1839498;78;20160;-78
2021/06/23 02:01:58;;;;;;;;;;;;;;;28.79;43.04;100330.80;1837627;78;20126;-77
2021/06/23 02:04:56;;;;;;;;;;;;;;;28.76;43.00;100327.25;1838111;78;20125;-77
2021/06/23 02:07:54;;;;;;;;;;;;;;;28.74;43.14;100324.76;1839255;78;20141;-77
2021/06/23 02:10:47;;;;;;;;;;;;;;;28.73;43.19;100316.78;1839246;78;20203;-77
2021/06/23 02:13:31;;;;;;;;;;;;;;;28.70;43.19;100312.64;1839152;78;20160;-77
2021/06/23 02:16:05;;;;;;;;;;;;;;;28.66;43.19;100318.48;1835551;78;20410;-77
2021/06/23 02:18:33;;;;;;;;;;;;;;;28.68;43.27;100322.31;1839213;78;20164;-77
2021/06/23 02:21:06;;;;;;;;;;;;;;;28.68;43.38;100321.77;1838521;78;20169;-77
2021/06/23 02:23:39;;;;;;;;;;;;;;;28.65;43.53;100320.11;1839238;78;20389;-77
2021/06/23 02:26:06;;;;;;;;;;;;;;;28.65;43.60;100319.55;1839496;78;20149;-77
2021/06/23 02:28:33;;;;;;;;;;;;;;;28.67;43.71;100321.50;1839363;78;20146;-77
2021/06/23 02:31:01;;;;;;;;;;;;;;;28.69;43.68;100321.20;1839586;78;20133;-77
2021/06/23 02:33:29;;;;;;;;;;;;;;;28.69;43.64;100322.02;1839321;78;20122;-77
2021/06/23 02:35:57;;;;;;;;;;;;;;;28.70;43.45;100329.18;1839973;78;20134;-78
2021/06/23 02:38:25;;;;;;;;;;;;;;;28.70;43.35;100325.60;1838848;78;20126;-78
2021/06/23 02:40:52;;;;;;;;;;;;;;;28.68;43.21;100312.11;1839850;78;20153;-77
2021/06/23 02:43:18;;;;;;;;;;;;;;;28.68;43.11;100320.38;1839808;78;20122;-77
2021/06/23 02:45:46;;;;;;;;;;;;;;;28.65;43.00;100319.55;1839776;78;20161;-77
2021/06/23 02:48:12;;;;;;;;;;;;;;;28.64;42.94;100319.85;1840065;78;20437;-77
2021/06/23 02:51:01;;;;;;;;;;;;;;;28.61;43.04;100323.98;1838531;78;20161;-77
2021/06/23 02:53:29;;;;;;;;;;;;;;;28.60;43.02;100314.63;1813534;78;20132;-77
2021/06/23 02:55:56;;;;;;;;;;;;;;;28.56;43.16;100315.73;1839469;78;20434;-77
2021/06/23 02:58:23;;;;;;;;;;;;;;;28.56;43.15;100318.49;1838207;78;20595;-77
2021/06/23 03:00:52;;;;;;;;;;;;;;;28.54;43.29;100316.02;1839140;78;20133;-77
2021/06/23 03:03:19;;;;;;;;;;;;;;;28.54;43.39;100323.47;1813576;78;20121;-77
2021/06/23 03:05:47;;;;;;;;;;;;;;;28.54;43.44;100328.98;1839113;78;20161;-77
2021/06/23 03:08:13;;;;;;;;;;;;;;;28.54;43.57;100323.47;1839115;78;20153;-77
2021/06/23 03:10:42;;;;;;;;;;;;;;;28.53;43.66;100323.20;1839019;78;20156;-78
2021/06/23 03:13:10;;;;;;;;;;;;;;;28.54;43.77;100331.19;1839191;78;20126;-77
2021/06/23 03:15:53;;;;;;;;;;;;;;;28.54;43.78;100326.23;1837231;78;20146;-77
2021/06/23 03:18:21;;;;;;;;;;;;;;;28.53;43.89;100329.54;1837196;78;20137;-78
2021/06/23 03:20:47;;;;;;;;;;;;;;;28.54;43.94;100342.77;1838842;78;20161;-77
2021/06/23 03:23:13;;;;;;;;;;;;;;;28.52;43.93;100346.33;1838774;78;20411;-77
2021/06/23 03:25:40;;;;;;;;;;;;;;;28.50;44.01;100343.87;1838418;78;20162;-77
2021/06/23 03:28:06;;;;;;;;;;;;;;;28.52;44.04;100337.54;1838433;78;20195;-78
2021/06/23 03:30:35;;;;;;;;;;;;;;;28.54;43.98;100331.73;1838156;78;20161;-77
2021/06/23 03:33:02;;;;;;;;;;;;;;;28.57;44.02;100329.81;1837057;78;20418;-77
2021/06/23 03:35:28;;;;;;;;;;;;;;;28.58;44.01;100320.43;1836677;78;20176;-77
2021/06/23 03:37:56;;;;;;;;;;;;;;;28.61;43.96;100319.84;1837812;78;20161;-77
2021/06/23 03:40:22;;;;;;;;;;;;;;;28.64;44.06;100320.67;1837197;78;20423;-76
2021/06/23 03:42:48;;;;;;;;;;;;;;;28.66;44.08;100320.38;1837253;78;20137;-78
2021/06/23 03:45:15;;;;;;;;;;;;;;;28.67;44.09;100315.16;1837691;78;20164;-78
2021/06/23 03:47:41;;;;;;;;;;;;;;;28.65;44.19;100311.29;1837339;78;20572;-77
2021/06/23 03:50:10;;;;;;;;;;;;;;;28.64;44.28;100315.16;1837549;77;20422;-77
2021/06/23 03:52:36;;;;;;;;;;;;;;;28.62;44.44;100313.25;1837774;78;20164;-77
2021/06/23 03:55:05;;;;;;;;;;;;;;;28.63;44.45;100315.45;1836927;78;20151;-77
2021/06/23 03:57:32;;;;;;;;;;;;;;;28.62;44.58;100320.14;1836581;78;20160;-77
2021/06/23 04:00:00;;;;;;;;;;;;;;;28.62;44.67;100322.08;1840108;77;20180;-77
2021/06/23 04:02:26;;;;;;;;;;;;;;;28.63;44.74;100319.58;1837345;78;20463;-77
2021/06/23 04:04:54;;;;;;;;;;;;;;;28.63;44.89;100319.03;1837469;78;20177;-77
2021/06/23 04:07:24;;;;;;;;;;;;;;;28.63;44.96;100319.03;1837103;78;20151;-77
2021/06/23 04:09:51;;;;;;;;;;;;;;;28.63;44.98;100319.58;1837457;78;20497;-78
2021/06/23 04:12:19;;;;;;;;;;;;;;;28.65;45.02;100319.55;1834753;78;20465;-77
2021/06/23 04:14:46;;;;;;;;;;;;;;;28.65;45.05;100306.33;1835770;78;20172;-78
2021/06/23 04:17:13;;;;;;;;;;;;;;;28.70;45.09;100314.02;1834406;78;20500;-78
2021/06/23 04:19:40;;;;;;;;;;;;;;;28.74;45.16;100308.77;1834839;78;20419;-78
2021/06/23 04:22:08;;;;;;;;;;;;;;;28.76;45.08;100295.00;1834060;78;20468;-77
2021/06/23 04:24:34;;;;;;;;;;;;;;;28.79;45.01;100287.52;1808641;78;20156;-78
2021/06/23 04:27:01;;;;;;;;;;;;;;;28.81;44.66;100297.72;1857750;77;20174;-78
2021/06/23 04:29:28;;;;;;;;;;;;;;;28.81;44.55;100303.23;1860365;77;20190;-78
2021/06/23 04:31:56;;;;;;;;;;;;;;;28.81;44.68;100305.17;1837999;78;20157;-78
2021/06/23 04:34:23;;;;;;;;;;;;;;;28.81;44.74;100330.80;1838379;78;20193;-79
2021/06/23 04:36:51;;;;;;;;;;;;;;;28.80;44.93;100313.18;1837344;78;20200;-79
2021/06/23 04:39:18;;;;;;;;;;;;;;;28.79;44.96;100328.86;1836588;78;20150;-78
2021/06/23 04:41:55;;;;;;;;;;;;;;;28.80;45.03;100331.92;1835392;78;20535;-78
2021/06/23 04:44:22;;;;;;;;;;;;;;;28.79;45.12;100312.33;1835142;78;20172;-77
2021/06/23 04:46:48;;;;;;;;;;;;;;;28.79;45.17;100308.19;1826209;78;20164;-77
2021/06/23 04:49:16;;;;;;;;;;;;;;;28.80;45.35;100326.96;1834550;78;20137;-77
2021/06/23 04:51:47;;;;;;;;;;;;;;;28.78;45.44;100327.22;1807124;78;20140;-76
2021/06/23 04:54:13;;;;;;;;;;;;;;;28.78;45.53;100345.14;1835513;78;20149;-77
2021/06/23 04:56:39;;;;;;;;;;;;;;;28.79;45.88;100341.83;1828490;78;20137;-76
2021/06/23 04:59:06;;;;;;;;;;;;;;;28.78;46.10;100350.66;1826937;78;20166;-76
2021/06/23 05:01:32;;;;;;;;;;;;;;;28.79;46.06;100337.70;1810230;78;20145;-77
2021/06/23 05:03:59;;;;;;;;;;;;;;;28.81;46.06;100343.77;1828830;77;20139;-76
2021/06/23 05:06:25;;;;;;;;;;;;;;;28.86;46.10;100330.52;1828927;77;20210;-76
2021/06/23 05:08:51;;;;;;;;;;;;;;;28.89;46.16;100323.03;1829261;77;20546;-76
2021/06/23 05:11:17;;;;;;;;;;;;;;;28.93;46.04;100325.50;1833755;77;20229;-76
2021/06/23 05:13:43;;;;;;;;;;;;;;;28.97;46.08;100327.99;1831399;77;20155;-76
2021/06/23 05:16:09;;;;;;;;;;;;;;;29.00;46.09;100318.61;1830858;78;20215;-76
2021/06/23 05:18:35;;;;;;;;;;;;;;;29.05;46.05;100324.09;1817410;78;20142;-75
2021/06/23 05:21:03;;;;;;;;;;;;;;;29.09;46.04;100332.63;1825762;77;20739;-75
2021/06/23 05:23:31;;;;;;;;;;;;;;;29.12;45.68;100330.69;1830826;77;20138;-76
2021/06/23 05:26:00;;;;;;;;;;;;;;;29.14;45.70;100335.35;1807767;78;20464;-75
2021/06/23 05:28:26;;;;;;;;;;;;;;;29.18;45.50;100343.33;1827857;78;20209;-75
2021/06/23 05:30:55;;;;;;;;;;;;;;;29.23;45.41;100335.58;1828861;77;20191;-75
2021/06/23 05:33:25;;;;;;;;;;;;;;;29.29;45.33;100348.22;1829300;77;20199;-75
2021/06/23 05:35:51;;;;;;;;;;;;;;;29.34;44.90;100337.15;1827890;77;20116;-76
2021/06/23 05:38:17;;;;;;;;;;;;;;;29.41;44.95;100352.02;1829504;77;20600;-76
2021/06/23 05:40:46;;;;;;;;;;;;;;;29.46;44.98;100347.28;1828877;77;20565;-76
2021/06/23 05:43:12;;;;;;;;;;;;;;;29.52;44.96;100359.96;1830451;77;20458;-76
2021/06/23 05:45:38;;;;;;;;;;;;;;;29.56;44.99;100355.52;1832172;77;20163;-76
2021/06/23 05:48:04;;;;;;;;;;;;;;;29.62;44.78;100361.85;1828981;77;20247;-76
2021/06/23 05:50:31;;;;;;;;;;;;;;;29.67;44.67;100353.53;1827420;77;20141;-76
2021/06/23 05:52:57;;;;;;;;;;;;;;;29.72;44.66;100361.77;1796460;78;20412;-75
2021/06/23 05:55:23;;;;;;;;;;;;;;;29.78;44.60;100355.08;1799571;78;20454;-76
2021/06/23 05:57:54;;;;;;;;;;;;;;;29.80;44.48;100358.39;1795567;78;20203;-76
2021/06/23 06:00:21;;;;;;;;;;;;;;;29.82;44.54;100358.91;1770332;79;20146;-76
2021/06/23 06:02:48;;;;;;;;;;;;;;;29.85;44.67;100363.05;1798692;78;20127;-76
2021/06/23 06:05:15;;;;;;;;;;;;;;;29.87;44.45;100348.94;1795405;78;20221;-76
2021/06/23 06:07:43;;;;;;;;;;;;;;;29.89;44.47;100357.75;1792081;78;20210;-76
2021/06/23 06:10:11;;;;;;;;;;;;;;;29.91;44.45;100358.30;1791219;78;20169;-76
2021/06/23 06:12:38;;;;;;;;;;;;;;;29.90;44.48;100355.28;1800002;78;20794;-76
2021/06/23 06:15:05;;;;;;;;;;;;;;;29.90;44.34;100362.18;1823555;77;20168;-76
2021/06/23 06:17:31;;;;;;;;;;;;;;;29.91;44.43;100367.97;1828064;77;20162;-77
2021/06/23 06:19:58;;;;;;;;;;;;;;;29.95;44.23;100355.23;1829912;77;20479;-76
2021/06/23 06:22:27;;;;;;;;;;;;;;;29.98;44.04;100362.95;1827084;77;20198;-77
2021/06/23 06:24:52;;;;;;;;;;;;;;;30.00;43.96;100370.38;1829987;77;20153;-76
2021/06/23 06:27:18;;;;;;;;;;;;;;;30.00;43.92;100360.70;1827618;77;20263;-78
2021/06/23 06:29:44;;;;;;;;;;;;;;;30.05;44.17;100364.80;1829266;77;20160;-78
2021/06/23 06:32:10;;;;;;;;;;;;;;;30.12;44.14;100376.34;1828039;76;20152;-78
2021/06/23 06:34:36;;;;;;;;;;;;;;;30.24;44.10;100385.64;1830608;77;20353;-78
2021/06/23 06:37:03;;;;;;;;;;;;;;;30.35;43.74;100390.53;1823696;77;20219;-78
2021/06/23 06:39:28;;;;;;;;;;;;;;;30.43;43.81;100387.11;1826586;77;20667;-77
2021/06/23 06:41:55;;;;;;;;;;;;;;;30.51;43.81;100374.05;1829649;77;20129;-79
2021/06/23 06:44:21;;;;;;;;;;;;;;;30.58;43.63;100351.03;1801775;78;20175;-77
2021/06/23 06:46:47;;;;;;;;;;;;;;;30.62;43.59;100348.51;1773535;79;20202;-77
2021/06/23 06:49:13;;;;;;;;;;;;;;;30.62;43.56;100363.16;1770843;79;20153;-78
2021/06/23 06:51:40;;;;;;;;;;;;;;;30.62;43.56;100364.53;1771313;79;20154;-77
2021/06/23 06:54:08;;;;;;;;;;;;;;;30.59;43.76;100366.49;1825012;77;20167;-76
2021/06/23 06:56:34;;;;;;;;;;;;;;;30.58;43.96;100366.23;1828875;77;20666;-77
2021/06/23 06:59:00;;;;;;;;;;;;;;;30.52;44.19;100378.45;1801370;78;20172;-77
2021/06/23 07:01:28;;;;;;;;;;;;;;;30.49;44.41;100368.81;1826008;77;20185;-78
2021/06/23 07:03:55;;;;;;;;;;;;;;;30.44;44.50;100374.41;1823293;77;20184;-77
2021/06/23 07:06:21;;;;;;;;;;;;;;;30.43;44.43;100373.30;1823056;77;20180;-77
2021/06/23 07:08:47;;;;;;;;;;;;;;;30.39;44.47;100378.61;1821210;77;20212;-77
2021/06/23 07:11:13;;;;;;;;;;;;;;;30.37;44.67;100396.58;1822993;77;20201;-78
2021/06/23 07:13:40;;;;;;;;;;;;;;;30.35;44.95;100396.88;1824271;77;20171;-77
2021/06/23 07:16:07;;;;;;;;;;;;;;;30.34;44.87;100411.79;1824421;76;20263;-78
2021/06/23 07:18:34;;;;;;;;;;;;;;;30.32;45.21;100409.33;1825621;77;20549;-78
2021/06/23 07:21:00;;;;;;;;;;;;;;;30.33;45.14;100406.83;1823350;78;20210;-78
2021/06/23 07:23:26;;;;;;;;;;;;;;;30.37;44.86;100414.55;1823451;77;20235;-76
2021/06/23 07:25:55;;;;;;;;;;;;;;;30.40;44.64;100410.64;1824914;77;20444;-77
2021/06/23 07:28:32;;;;;;;;;;;;;;;30.38;44.61;100414.80;1821993;76;20152;-77
2021/06/23 07:30:49;;;;;;;;;;;;;;;30.37;44.59;100424.22;1821088;77;20137;-75
2021/06/23 07:33:15;;;;;;;;;;;;;;;30.37;44.43;100427.80;1820795;77;20209;-75
2021/06/23 07:38:26;;;;;;;;;;;;;;;30.36;44.03;100421.19;1823989;77;20283;-77
2021/06/23 07:41:06;;;;;;;;;;;;;;;30.45;44.29;100420.27;1822948;76;20193;-76
2021/06/23 07:43:33;;;;;;;;;;;;;;;30.58;43.95;100418.20;1822519;77;20172;-76
2021/06/23 07:46:02;;;;;;;;;;;;;;;30.74;43.56;100416.67;1823058;77;20131;-77
2021/06/23 07:48:33;;;;;;;;;;;;;;;30.89;43.13;100408.78;1824227;77;20463;-77
2021/06/23 07:51:06;;;;;;;;;;;;;;;31.05;42.70;100408.84;1824746;77;20172;-77
2021/06/23 07:53:30;;;;;;;;;;;;;;;31.19;42.62;100411.14;1822141;77;20176;-77
2021/06/23 08:09:34;;;;;;;;;;;;;;;31.52;41.94;100423.73;1826494;77;20148;-77
2021/06/23 08:12:15;;;;;;;;;;;;;;;31.62;41.74;100436.06;1827548;77;20170;-76
2021/06/23 08:14:28;;;;;;;;;;;;;;;31.71;41.34;100432.88;1818214;77;20164;-75
2021/06/23 08:16:54;;;;;;;;;;;;;;;31.81;41.16;100431.90;1822074;77;20202;-75
2021/06/23 08:19:29;;;;;;;;;;;;;;;31.93;40.68;100430.06;1823576;77;20161;-75
2021/06/23 08:21:55;;;;;;;;;;;;;;;32.04;40.57;100437.10;1826487;77;20158;-75
2021/06/23 08:24:22;;;;;;;;;;;;;;;32.13;40.31;100445.55;1827387;77;20160;-75
2021/06/23 08:26:48;;;;;;;;;;;;;;;32.21;40.21;100451.80;1774337;77;20165;-75
2021/06/23 08:29:15;;;;;;;;;;;;;;;32.28;40.37;100450.27;1824060;77;20270;-74
2021/06/23 08:31:41;;;;;;;;;;;;;;;32.35;40.33;100462.36;1819723;77;20227;-74
2021/06/23 08:34:07;;;;;;;;;;;;;;;32.38;40.49;100470.64;1799376;77;20175;-75
2021/06/23 08:36:33;;;;;;;;;;;;;;;32.35;40.33;100479.56;1823062;77;20214;-76
2021/06/23 08:39:01;;;;;;;;;;;;;;;32.29;40.19;100481.57;1816244;77;20246;-76
2021/06/23 08:41:29;;;;;;;;;;;;;;;32.21;40.75;100476.17;1822621;77;20198;-75
2021/06/23 08:44:02;;;;;;;;;;;;;;;32.14;41.32;100474.34;1820461;77;21213;-75
2021/06/23 08:46:30;;;;;;;;;;;;;;;32.15;41.60;100482.09;1820927;77;20441;-75
2021/06/23 08:48:57;;;;;;;;;;;;;;;32.16;41.77;100472.11;1820775;77;20207;-75
2021/06/23 08:51:25;;;;;;;;;;;;;;;32.19;42.14;100471.48;1824644;77;20211;-75
2021/06/23 08:53:52;;;;;;;;;;;;;;;32.22;42.55;100452.88;1824555;77;20189;-74
2021/06/23 08:56:20;;;;;;;;;;;;;;;32.25;42.23;100469.44;1821653;77;20162;-74
2021/06/23 08:58:47;;;;;;;;;;;;;;;32.23;41.90;100473.09;1824552;77;20165;-77
2021/06/23 09:01:13;;;;;;;;;;;;;;;32.20;42.13;100454.28;1819987;77;20210;-74
2021/06/23 09:04:05;;;;;;;;;;;;;;;32.17;42.45;100452.96;1820684;77;20753;-76
2021/06/23 09:06:53;;;;;;;;;;;;;;;32.20;42.32;100466.19;1794036;77;20583;-77
2021/06/23 09:09:23;;;;;;;;;;;;;;;32.22;42.30;100462.57;1819270;77;20201;-77
2021/06/23 09:11:50;;;;;;;;;;;;;;;32.23;41.88;100454.51;1822929;77;20229;-77
2021/06/23 09:14:17;;;;;;;;;;;;;;;32.24;41.66;100450.61;1822964;77;20255;-75
2021/06/23 09:17:03;;;;;;;;;;;;;;;32.26;41.22;100458.64;1823684;77;20589;-76
2021/06/23 09:19:30;;;;;;;;;;;;;;;32.26;41.16;100448.37;1825639;77;20156;-76
2021/06/23 09:21:56;;;;;;;;;;;;;;;32.28;40.93;100450.27;1825572;77;20135;-76
2021/06/23 09:24:38;;;;;;;;;;;;;;;32.26;41.15;100446.98;1826779;77;20146;-75
2021/06/23 09:27:19;;;;;;;;;;;;;;;32.24;41.20;100460.30;1822771;77;20216;-76
2021/06/23 09:29:45;;;;;;;;;;;;;;;32.22;41.54;100465.34;1819997;77;20449;-76
2021/06/23 09:32:12;;;;;;;;;;;;;;;32.23;41.66;100466.16;1824746;77;20929;-76
2021/06/23 09:34:46;;;;;;;;;;;;;;;32.22;41.30;100468.68;1825168;77;20185;-77
2021/06/23 09:37:30;;;;;;;;;;;;;;;32.20;41.48;100466.19;1823927;78;20168;-76
2021/06/23 09:40:16;;;;;;;;;;;;;;;32.19;41.37;100464.55;1822153;77;20185;-76
2021/06/23 09:42:50;;;;;;;;;;;;;;;32.14;41.50;100459.09;1792716;78;20145;-76
2021/06/23 09:45:17;;;;;;;;;;;;;;;32.09;41.73;100468.88;1813545;77;20192;-76
2021/06/23 09:47:45;;;;;;;;;;;;;;;32.07;41.86;100471.14;1792822;78;20163;-76
2021/06/23 09:50:20;;;;;;;;;;;;;;;32.05;42.28;100460.91;1823791;77;20556;-76
2021/06/23 09:52:56;;;;;;;;;;;;;;;32.04;42.60;100455.11;1822552;77;20525;-76
2021/06/23 09:55:50;;;;;;;;;;;;;;;32.03;42.21;100474.25;1821289;77;20167;-77
2021/06/23 09:58:20;;;;;;;;;;;;;;;32.01;42.47;100470.95;1822000;77;20220;-76
2021/06/23 10:00:59;;;;;;;;;;;;;;;32.00;42.89;100470.69;1829606;77;20203;-76
2021/06/23 10:03:28;;;;;;;;;;;;;;;32.00;42.95;100480.39;1824856;77;20164;-75
2021/06/23 10:05:54;;;;;;;;;;;;;;;32.00;42.97;100480.39;1828963;77;20443;-76
2021/06/23 10:08:24;;;;;;;;;;;;;;;31.98;43.31;100485.42;1808620;78;20092;-76
2021/06/23 10:10:52;;;;;;;;;;;;;;;31.98;43.61;100481.27;1766488;79;20181;-78
2021/06/23 10:13:18;;;;;;;;;;;;;;;31.99;44.06;100488.45;1830474;77;20157;-75
2021/06/23 10:15:46;;;;;;;;;;;;;;;31.97;43.24;100474.05;1829696;77;20173;-74
2021/06/23 10:18:14;;;;;;;;;;;;;;;31.95;42.78;100461.90;1829946;77;20465;-76
2021/06/23 10:20:40;;;;;;;;;;;;;;;31.94;43.09;100461.64;1829442;77;20162;-75
2021/06/23 10:23:06;;;;;;;;;;;;;;;31.93;43.09;100465.55;1828479;77;20152;-77
2021/06/23 10:25:32;;;;;;;;;;;;;;;31.94;43.17;100463.03;1830525;77;20550;-77
2021/06/23 10:27:59;;;;;;;;;;;;;;;31.92;43.54;100455.56;1823744;77;20167;-78
2021/06/23 10:30:29;;;;;;;;;;;;;;;31.90;43.56;100456.44;1827987;77;20487;-78
2021/06/23 10:32:55;;;;;;;;;;;;;;;31.89;44.07;100463.11;1828128;77;20175;-77
2021/06/23 10:35:26;;;;;;;;;;;;;;;31.87;44.31;100457.59;1826438;77;20165;-80
2021/06/23 10:37:54;;;;;;;;;;;;;;;31.86;44.43;100461.50;1822795;77;20172;-77
2021/06/23 10:40:20;;;;;;;;;;;;;;;31.82;44.52;100466.23;1828219;77;20142;-78
2021/06/23 10:42:47;;;;;;;;;;;;;;;31.82;44.80;100473.70;1826822;77;20184;-76
2021/06/23 10:45:14;;;;;;;;;;;;;;;31.81;44.79;100471.49;1825236;77;20164;-78
2021/06/23 10:47:44;;;;;;;;;;;;;;;31.81;44.89;100478.42;1825977;77;20172;-77
2021/06/23 10:50:31;;;;;;;;;;;;;;;31.84;44.94;100488.13;1823109;77;20136;-80
2021/06/23 10:52:57;;;;;;;;;;;;;;;31.83;44.99;100484.50;1824811;77;20679;-77
2021/06/23 10:55:26;;;;;;;;;;;;;;;31.85;45.18;100494.48;1828258;77;20139;-77
2021/06/23 10:57:59;;;;;;;;;;;;;;;31.83;45.28;100491.42;1823413;77;20477;-77
2021/06/23 11:00:30;;;;;;;;;;;;;;;31.81;45.19;100486.73;1823368;77;20133;-76
2021/06/23 11:03:12;;;;;;;;;;;;;;;31.77;45.09;100488.45;1822931;77;20184;-75
2021/06/23 11:05:43;;;;;;;;;;;;;;;31.74;44.73;100488.21;1825975;77;20116;-75
2021/06/23 11:08:28;;;;;;;;;;;;;;;31.69;44.82;100480.80;1822547;77;20168;-76
2021/06/23 11:10:55;;;;;;;;;;;;;;;31.67;45.01;100474.75;1829603;77;20209;-76
2021/06/23 11:13:24;;;;;;;;;;;;;;;31.69;45.43;100488.29;1801524;78;20555;-76
2021/06/23 11:15:53;;;;;;;;;;;;;;;31.67;45.64;100488.59;1796096;78;20502;-78
2021/06/23 11:18:31;;;;;;;;;;;;;;;31.66;45.82;100486.95;1796298;78;20582;-78
2021/06/23 11:21:19;;;;;;;;;;;;;;;31.66;45.99;100485.58;1765093;79;20186;-78
2021/06/23 11:24:04;;;;;;;;;;;;;;;31.67;45.78;100487.78;1795073;79;20168;-78
2021/06/23 11:26:38;;;;;;;;;;;;;;;31.68;45.80;100493.58;1793266;79;20191;-77
2021/06/23 11:29:15;;;;;;;;;;;;;;;31.68;46.00;100497.16;1824565;77;20188;-78
2021/06/23 11:31:53;;;;;;;;;;;;;;;31.69;45.88;100499.37;1821504;78;20148;-78
2021/06/23 11:34:43;;;;;;;;;;;;;;;31.71;45.93;100497.96;1827242;77;20454;-78
2021/06/23 11:37:12;;;;;;;;;;;;;;;31.71;46.15;100495.19;1833904;77;20200;-77
2021/06/23 11:39:38;;;;;;;;;;;;;;;31.70;46.40;100493.52;1830528;77;20168;-78
2021/06/23 11:42:05;;;;;;;;;;;;;;;31.70;46.54;100498.23;1826060;78;20196;-78
2021/06/23 11:44:34;;;;;;;;;;;;;;;31.68;46.54;100499.11;1829731;77;20152;-78
2021/06/23 11:47:01;;;;;;;;;;;;;;;31.66;46.42;100502.19;1829104;77;20147;-78
2021/06/23 11:49:29;;;;;;;;;;;;;;;31.64;46.37;100502.20;1829794;77;20157;-79
2021/06/23 11:52:00;;;;;;;;;;;;;;;31.62;46.30;100507.23;1824708;77;20584;-78
2021/06/23 11:54:28;;;;;;;;;;;;;;;31.60;46.22;100512.23;1826007;76;20150;-77
2021/06/23 11:56:54;;;;;;;;;;;;;;;31.57;46.02;100515.05;1828458;77;20153;-77
2021/06/23 11:59:20;;;;;;;;;;;;;;;31.57;46.03;100515.05;1827941;77;20424;-77
2021/06/23 12:01:49;;;;;;;;;;;;;;;31.55;46.23;100513.12;1827031;78;20162;-78
2021/06/23 12:04:15;;;;;;;;;;;;;;;31.58;46.45;100518.08;1830801;77;20149;-77
2021/06/23 12:06:52;;;;;;;;;;;;;;;31.60;46.55;100515.82;1831986;77;20144;-80
2021/06/23 12:09:28;;;;;;;;;;;;;;;31.62;46.76;100525.23;1830074;78;20137;-78
2021/06/23 12:12:01;;;;;;;;;;;;;;;31.61;46.75;100523.00;1806743;78;20235;-82
2021/06/23 12:14:34;;;;;;;;;;;;;;;31.60;46.74;100517.77;1825867;77;20269;-79
2021/06/23 12:17:01;;;;;;;;;;;;;;;31.58;46.88;100523.05;1817000;77;20520;-80
2021/06/23 12:19:27;;;;;;;;;;;;;;;31.56;46.80;100527.22;1827834;77;20260;-79
2021/06/23 12:21:54;;;;;;;;;;;;;;;31.55;46.68;100518.66;1800954;77;20654;-77
2021/06/23 12:24:20;;;;;;;;;;;;;;;31.53;46.64;100518.14;1820000;77;20203;-77
2021/06/23 12:26:46;;;;;;;;;;;;;;;31.57;46.67;100521.97;1823711;77;20168;-78
2021/06/23 12:29:12;;;;;;;;;;;;;;;31.58;46.48;100520.28;1828126;78;20664;-77
2021/06/23 12:31:39;;;;;;;;;;;;;;;31.59;46.27;100522.48;1824354;77;20300;-77
2021/06/23 12:34:09;;;;;;;;;;;;;;;31.58;46.20;100518.89;1826185;77;20180;-77
2021/06/23 12:36:33;;;;;;;;;;;;;;;31.58;46.16;100521.66;1826833;78;20622;-77
2021/06/23 12:38:59;;;;;;;;;;;;;;;31.58;46.08;100525.00;1828686;77;20581;-78
2021/06/23 12:41:25;;;;;;;;;;;;;;;31.54;45.90;100527.53;1830683;77;20254;-78
2021/06/23 12:43:52;;;;;;;;;;;;;;;31.52;46.07;100528.93;1792190;78;20226;-77
2021/06/23 12:46:18;;;;;;;;;;;;;;;31.50;46.25;100532.00;1827568;77;20816;-76
2021/06/23 12:48:44;;;;;;;;;;;;;;;31.50;46.07;100529.80;1822966;77;20475;-80
2021/06/23 12:51:10;;;;;;;;;;;;;;;31.49;45.85;100536.47;1826275;78;20171;-77
2021/06/23 12:53:36;;;;;;;;;;;;;;;31.49;45.86;100530.93;1804242;78;20129;-79
2021/06/23 12:56:03;;;;;;;;;;;;;;;31.48;45.80;100526.52;1833461;77;20096;-78
2021/06/23 12:58:30;;;;;;;;;;;;;;;31.48;45.74;100527.91;1828748;77;20182;-80
2021/06/23 13:00:56;;;;;;;;;;;;;;;31.47;45.78;100530.39;1826035;77;20195;-79